Airport View

Enter AWOS ICAO identifier for current METAR.

ex. KFNL

K08D 080535Z AUTO 34010KT 10SM CLR 17/10 A2993 RMK AO2

8 Aug 2020 05:40

Frequency: 121.1

Phone: 701-628-1737

Other Area AWOS: KD60 - KMIB - KMOT - KS25

TAF AMD KMIB 072046Z 0720/0823 16010G15KT 9999 SCT050 QNH2967INS TEMPO 0723/0724 VRB25G35KT 6000 -TSRA BKN050CB BECMG 0802/0803 30009KT 9999 SCT060 QNH2971INS BECMG 0808/0809 VRB06KT 9999 SCT060 QNH2990INS BECMG 0815/0816 27010G15KT 9999 FEW080 QNH2982INS TX32/0722Z TN14/0808Z LAST NO AMDS AFT 0723 NEXT 1005